createdAt,value
2019-02-15T00:00:05.812Z,8.30
2019-02-15T00:05:13.137Z,6.20
2019-02-15T00:10:17.347Z,4.80
2019-02-15T00:15:23.206Z,5.40
2019-02-15T00:20:33.883Z,7.67
2019-02-15T00:25:39.502Z,6.10
2019-02-15T00:30:43.671Z,9.30
2019-02-15T00:35:47.915Z,5.27
2019-02-15T00:40:52.079Z,6.57
2019-02-15T00:46:28.723Z,7.40
2019-02-15T00:51:54.866Z,5.77
2019-02-15T00:57:24.115Z,7.07
2019-02-15T01:02:48.627Z,5.77
2019-02-15T01:08:10.851Z,7.77
2019-02-15T01:13:19.418Z,5.03
2019-02-15T01:18:23.594Z,6.23
2019-02-15T01:23:28.960Z,6.37
2019-02-15T01:28:38.150Z,5.87
2019-02-15T01:34:00.603Z,9.33
2019-02-15T01:39:20.169Z,5.30
2019-02-15T01:44:36.316Z,6.20
2019-02-15T01:49:40.493Z,5.80
2019-02-15T01:54:45.181Z,6.83
2019-02-15T01:59:49.356Z,7.27
2019-02-15T02:04:54.565Z,4.60
2019-02-15T02:09:58.721Z,5.97
2019-02-15T02:15:03.924Z,8.07
2019-02-15T02:20:08.834Z,7.80
2019-02-15T02:25:13.567Z,8.00
2019-02-15T02:30:17.756Z,7.50
2019-02-15T02:35:22.802Z,5.70
2019-02-15T02:40:26.978Z,6.27
2019-02-15T02:45:31.369Z,6.30
2019-02-15T02:50:35.571Z,5.87
2019-02-15T02:55:39.911Z,6.27
2019-02-15T03:00:44.090Z,4.40
2019-02-15T03:05:49.371Z,4.40
2019-02-15T03:10:53.550Z,7.03
2019-02-15T03:15:58.747Z,6.20
2019-02-15T03:21:02.920Z,5.63
2019-02-15T03:26:07.441Z,6.07
2019-02-15T03:31:11.620Z,7.57
2019-02-15T03:36:26.846Z,5.53
2019-02-15T03:41:33.460Z,7.77
2019-02-15T03:46:38.004Z,7.77
2019-02-15T03:51:42.183Z,6.90
2019-02-15T03:56:47.379Z,6.23
2019-02-15T04:01:51.549Z,5.50
2019-02-15T04:06:56.542Z,5.30
2019-02-15T04:12:00.726Z,4.90
2019-02-15T04:17:05.835Z,6.67
2019-02-15T04:22:10.042Z,5.97
2019-02-15T04:27:14.255Z,5.63
2019-02-15T04:32:18.526Z,4.07
2019-02-15T04:37:23.495Z,10.33
2019-02-15T04:42:27.699Z,7.97
2019-02-15T04:47:32.028Z,7.17
2019-02-15T04:52:36.241Z,6.03
2019-02-15T04:57:40.939Z,5.53
2019-02-15T05:02:45.210Z,6.37
2019-02-15T05:07:49.844Z,5.47
2019-02-15T05:12:54.142Z,6.33
2019-02-15T05:17:59.249Z,5.73
2019-02-15T05:23:03.485Z,11.47
2019-02-15T05:28:08.926Z,8.63
2019-02-15T05:33:13.328Z,6.63
2019-02-15T05:38:18.331Z,5.90
2019-02-15T05:43:24.935Z,6.60
2019-02-15T05:48:30.448Z,6.80
2019-02-15T05:53:35.613Z,7.70
2019-02-15T05:58:41.072Z,6.67
2019-02-15T06:03:45.243Z,8.67
2019-02-15T06:08:50.646Z,6.47
2019-02-15T06:13:54.838Z,7.60
2019-02-15T06:19:00.309Z,8.10
2019-02-15T06:24:04.507Z,6.77
2019-02-15T06:29:09.254Z,6.43
2019-02-15T06:34:13.725Z,8.90
2019-02-15T06:39:19.528Z,9.03
2019-02-15T06:44:23.720Z,9.53
2019-02-15T06:49:29.405Z,8.03
2019-02-15T06:54:34.396Z,6.43
2019-02-15T06:59:48.107Z,9.63
2019-02-15T07:05:07.577Z,10.33
2019-02-15T07:10:12.604Z,6.13
2019-02-15T07:15:16.793Z,9.07
2019-02-15T07:20:21.805Z,9.97
2019-02-15T07:25:26.057Z,8.97
2019-02-15T07:30:30.785Z,7.00
2019-02-15T07:35:35.100Z,9.77
2019-02-15T07:40:40.177Z,7.80
2019-02-15T07:45:44.470Z,6.47
2019-02-15T07:50:51.927Z,7.00
2019-02-15T07:55:56.125Z,9.30
2019-02-15T08:01:00.442Z,10.73
2019-02-15T08:06:04.639Z,8.70
2019-02-15T08:11:09.129Z,10.07
2019-02-15T08:16:13.383Z,11.50
2019-02-15T08:21:19.454Z,12.03
2019-02-15T08:26:23.629Z,10.57
2019-02-15T08:31:28.906Z,10.80
2019-02-15T08:36:33.275Z,10.50
2019-02-15T08:41:38.801Z,11.27
2019-02-15T08:46:43.348Z,10.63
2019-02-15T08:51:48.098Z,12.37
2019-02-15T08:56:52.623Z,10.73
2019-02-15T09:02:19.361Z,13.63
2019-02-15T09:07:23.823Z,7.13
2019-02-15T09:12:28.358Z,10.00
2019-02-15T09:17:32.599Z,13.78
2019-02-15T09:22:37.078Z,11.17
2019-02-15T09:27:53.858Z,14.87
2019-02-15T09:32:58.354Z,14.50
2019-02-15T09:38:02.548Z,16.12
2019-02-15T09:43:07.056Z,11.57
2019-02-15T09:48:11.414Z,11.33
2019-02-15T09:53:15.646Z,16.62
2019-02-15T09:58:19.831Z,9.35
2019-02-15T10:03:24.075Z,9.73
2019-02-15T10:08:28.589Z,14.43
2019-02-15T10:13:32.783Z,13.40
2019-02-15T10:23:52.058Z,21.40
2019-02-15T10:28:56.595Z,19.37
2019-02-15T10:34:01.059Z,17.83
2019-02-15T10:39:06.125Z,9.50
2019-02-15T10:44:10.661Z,13.27
2019-02-15T10:49:15.286Z,15.93
2019-02-15T10:54:19.725Z,12.37
2019-02-15T10:59:24.343Z,18.33
2019-02-15T11:04:28.927Z,10.27
2019-02-15T11:09:33.390Z,14.03
2019-02-15T11:14:37.888Z,16.57
2019-02-15T11:19:42.509Z,13.20
2019-02-15T11:24:47.029Z,13.03
2019-02-15T11:29:51.585Z,10.57
2019-02-15T11:34:56.143Z,14.13
2019-02-15T11:40:00.888Z,9.93
2019-02-15T11:45:05.451Z,8.63
2019-02-15T11:50:11.544Z,9.87
2019-02-15T11:55:17.108Z,7.73
2019-02-15T12:00:26.627Z,8.60
2019-02-15T12:05:31.189Z,7.10
2019-02-15T12:10:36.774Z,6.40
2019-02-15T12:15:41.260Z,8.33
2019-02-15T12:20:48.028Z,7.83
2019-02-15T12:25:52.554Z,8.33
2019-02-15T12:30:58.237Z,10.07
2019-02-15T12:36:02.691Z,8.00
2019-02-15T12:41:07.234Z,9.83
2019-02-15T12:46:11.705Z,6.47
2019-02-15T12:51:16.453Z,8.67
2019-02-15T12:56:20.962Z,9.80
2019-02-15T13:01:26.737Z,9.53
2019-02-15T13:06:31.273Z,7.10
2019-02-15T13:11:35.935Z,11.47
2019-02-15T13:16:41.499Z,8.93
2019-02-15T13:21:46.123Z,6.07
2019-02-15T13:26:50.568Z,5.43
2019-02-15T13:31:56.273Z,8.73
2019-02-15T13:37:00.755Z,6.67
2019-02-15T13:42:08.181Z,9.20
2019-02-15T13:47:12.782Z,8.07
2019-02-15T13:52:17.262Z,9.33
2019-02-15T13:57:24.166Z,6.67
2019-02-15T14:02:31.058Z,10.90
2019-02-15T14:07:35.742Z,9.23
2019-02-15T14:12:41.548Z,9.30
2019-02-15T14:17:48.336Z,7.80
2019-02-15T14:22:52.623Z,8.63
2019-02-15T14:27:57.168Z,8.27
2019-02-15T14:33:03.557Z,9.73
2019-02-15T14:38:08.131Z,8.00
2019-02-15T14:43:14.173Z,7.67
2019-02-15T14:48:20.048Z,9.37
2019-02-15T14:53:26.107Z,7.43
2019-02-15T14:58:30.656Z,7.97
2019-02-15T15:03:35.323Z,4.30
2019-02-15T15:08:39.826Z,6.03
2019-02-15T15:13:45.594Z,5.07
2019-02-15T15:18:50.103Z,7.17
2019-02-15T15:23:55.101Z,3.70
2019-02-15T15:28:59.581Z,3.27
2019-02-15T15:34:05.545Z,4.77
2019-02-15T15:39:10.255Z,4.30
2019-02-15T15:44:15.835Z,4.17
2019-02-15T15:49:22.091Z,3.97
2019-02-15T15:54:27.674Z,5.45
2019-02-15T15:59:32.318Z,3.43
2019-02-15T16:04:37.688Z,2.90
2019-02-15T16:09:41.995Z,3.45
2019-02-15T16:14:47.806Z,3.17
2019-02-15T16:19:52.418Z,3.27
2019-02-15T16:24:58.040Z,3.40
2019-02-15T16:30:02.450Z,4.22
2019-02-15T16:35:08.445Z,2.37
2019-02-15T16:40:12.989Z,4.00
2019-02-15T16:45:19.121Z,3.37
2019-02-15T16:50:23.315Z,2.17
2019-02-15T16:55:28.971Z,4.40
2019-02-15T17:00:33.222Z,3.12
2019-02-15T17:05:42.243Z,2.43
2019-02-15T17:10:46.535Z,2.40
2019-02-15T17:15:52.012Z,3.87
2019-02-15T17:20:56.293Z,2.93
2019-02-15T17:26:01.280Z,3.27
2019-02-15T17:31:05.538Z,2.70
2019-02-15T17:36:11.282Z,2.73
2019-02-15T17:41:15.586Z,2.17
2019-02-15T17:46:21.234Z,3.83
2019-02-15T17:51:25.431Z,6.45
2019-02-15T17:56:30.833Z,5.50
2019-02-15T18:01:35.319Z,2.57
2019-02-15T18:06:41.291Z,2.57
2019-02-15T18:11:45.489Z,3.15
2019-02-15T18:16:50.582Z,2.50
2019-02-15T18:21:54.862Z,2.53
2019-02-15T18:27:00.459Z,2.37
2019-02-15T18:32:04.694Z,5.10
2019-02-15T18:37:11.201Z,3.17
2019-02-15T18:42:15.402Z,3.40
2019-02-15T18:47:21.336Z,3.83
2019-02-15T18:52:25.558Z,5.43
2019-02-15T18:57:29.768Z,4.93
2019-02-15T19:02:33.982Z,4.30
2019-02-15T19:07:39.546Z,4.83
2019-02-15T19:12:43.772Z,4.33
2019-02-15T19:17:48.556Z,4.50
2019-02-15T19:22:52.826Z,3.73
2019-02-15T19:27:58.336Z,4.77
2019-02-15T19:33:02.565Z,5.57
2019-02-15T19:38:08.475Z,3.70
2019-02-15T19:43:12.761Z,5.00
2019-02-15T19:48:18.653Z,4.90
2019-02-15T19:53:22.869Z,3.87
2019-02-15T19:58:28.458Z,3.43
2019-02-15T20:03:32.696Z,5.47
2019-02-15T20:08:36.957Z,5.03
2019-02-15T20:13:41.179Z,4.23
2019-02-15T20:18:46.216Z,4.40
2019-02-15T20:23:50.600Z,5.77
2019-02-15T20:28:55.730Z,5.07
2019-02-15T20:33:59.926Z,5.07
2019-02-15T20:39:05.751Z,5.17
2019-02-15T20:44:10.477Z,4.23
2019-02-15T20:49:15.839Z,6.30
2019-02-15T20:54:20.103Z,6.20
2019-02-15T20:59:25.719Z,5.67
2019-02-15T21:04:29.961Z,5.70
2019-02-15T21:09:35.367Z,5.47
2019-02-15T21:14:39.618Z,6.53
2019-02-15T21:19:44.927Z,7.77
2019-02-15T21:24:50.774Z,6.83
2019-02-15T21:29:56.479Z,6.30
2019-02-15T21:35:00.940Z,7.27
2019-02-15T21:40:07.609Z,5.20
2019-02-15T21:45:11.868Z,3.60
2019-02-15T21:50:17.870Z,4.30
2019-02-15T21:55:23.366Z,4.87
2019-02-15T22:00:29.003Z,3.73
2019-02-15T22:05:33.182Z,4.67
2019-02-15T22:10:37.480Z,6.97
2019-02-15T22:15:41.669Z,5.37
2019-02-15T22:20:46.047Z,8.23
2019-02-15T22:25:50.224Z,5.97
2019-02-15T22:30:54.405Z,5.43
2019-02-15T22:35:58.604Z,4.50
2019-02-15T22:41:12.819Z,8.27
2019-02-15T22:46:17.094Z,4.90
2019-02-15T22:51:22.595Z,6.27
2019-02-15T22:56:26.824Z,4.40
2019-02-15T23:01:32.573Z,7.13
2019-02-15T23:06:36.749Z,4.40
2019-02-15T23:11:44.039Z,4.07
2019-02-15T23:16:50.443Z,5.63
2019-02-15T23:21:55.198Z,5.20
2019-02-15T23:26:59.451Z,5.43
2019-02-15T23:32:03.795Z,5.17
2019-02-15T23:37:07.998Z,3.57
2019-02-15T23:42:12.196Z,7.80
2019-02-15T23:47:16.456Z,7.47
2019-02-15T23:52:20.667Z,5.13
2019-02-15T23:57:24.927Z,9.27
